Time;durP1;ratioP1;P1;durP2;ratioP2;P2;SDS_P1;SDS_P2;PMS_P1;PMS_P2;Temp;Humidity;BMP_temperature;BMP_pressure;BME280_temperature;BME280_humidity;BME280_pressure;Samples;Min_cycle;Max_cycle;Signal;HPM_P1;HPM_P2
2021/12/14 00:01:01;;;;;;;362.25;147.38;;;;;;;-2.68;100.00;100112.81;2054216;28;20240;-74
2021/12/14 00:02:02;;;;;;;347.25;147.05;;;;;;;-2.68;100.00;100116.25;2046567;28;20705;-74
2021/12/14 00:03:05;;;;;;;347.45;148.55;;;;;;;-2.66;100.00;100111.63;2054429;28;20221;-74
2021/12/14 00:04:09;;;;;;;347.17;148.85;;;;;;;-2.64;100.00;100121.91;2054225;28;20773;-74
2021/12/14 00:05:11;;;;;;;355.45;148.43;;;;;;;-2.61;100.00;100124.13;2046237;28;20312;-74
2021/12/14 00:06:15;;;;;;;350.98;149.10;;;;;;;-2.64;100.00;100114.88;2054261;28;20576;-75
2021/12/14 00:07:19;;;;;;;327.70;146.40;;;;;;;-2.65;100.00;100120.28;2054903;28;20554;-74
2021/12/14 00:08:20;;;;;;;341.70;147.25;;;;;;;-2.68;100.00;100116.25;2053838;28;20236;-74
2021/12/14 00:09:27;;;;;;;363.85;148.38;;;;;;;-2.65;100.00;100118.47;2038375;28;20234;-73
2021/12/14 00:10:49;;;;;;;344.65;148.60;;;;;;;-2.64;100.00;100106.22;2052002;28;20250;-74
2021/12/14 00:12:06;;;;;;;335.00;145.68;;;;;;;-2.66;100.00;100105.59;2046108;28;20226;-74
2021/12/14 00:13:20;;;;;;;355.20;145.13;;;;;;;-2.64;100.00;100108.84;2045971;28;20644;-73
2021/12/14 00:15:01;;;;;;;339.05;146.85;;;;;;;-2.61;100.00;100111.91;2047475;28;20225;-75
2021/12/14 00:15:50;;;;;;;339.25;141.85;;;;;;;-2.62;100.00;100115.47;2048913;28;20225;-75
2021/12/14 00:16:56;;;;;;;337.63;147.88;;;;;;;-2.62;100.00;100112.88;2046378;28;20230;-75
2021/12/14 00:18:10;;;;;;;357.45;149.23;;;;;;;-2.63;100.00;100105.22;2053917;28;20245;-75
2021/12/14 00:19:11;;;;;;;352.33;147.82;;;;;;;-2.65;100.00;100107.22;2053724;28;20304;-75
2021/12/14 00:20:24;;;;;;;347.30;151.10;;;;;;;-2.63;100.00;100110.44;2062152;28;20233;-75
2021/12/14 00:21:30;;;;;;;348.30;148.20;;;;;;;-2.62;100.00;100106.84;2060329;28;20627;-75
2021/12/14 00:22:37;;;;;;;349.63;148.18;;;;;;;-2.63;100.00;100105.22;2055103;28;20613;-76
2021/12/14 00:24:57;;;;;;;344.73;151.93;;;;;;;-2.59;100.00;100102.06;2046691;28;20331;-75
2021/12/14 00:25:59;;;;;;;362.23;154.02;;;;;;;-2.59;100.00;100107.28;2046940;28;20232;-75
2021/12/14 00:27:03;;;;;;;368.60;159.00;;;;;;;-2.65;100.00;100102.00;2045576;28;20688;-75
2021/12/14 00:28:10;;;;;;;370.42;157.90;;;;;;;-2.71;100.00;100100.91;2046320;28;20269;-75
2021/12/14 00:29:15;;;;;;;368.73;157.68;;;;;;;-2.79;100.00;100108.84;2046428;28;20226;-75
2021/12/14 00:30:17;;;;;;;378.63;157.05;;;;;;;-2.85;100.00;100104.38;2046163;28;20668;-75
2021/12/14 00:31:20;;;;;;;366.77;155.88;;;;;;;-2.81;100.00;100107.44;2046064;28;20794;-75
2021/12/14 00:32:26;;;;;;;391.95;164.45;;;;;;;-2.91;100.00;100105.91;2046066;28;20265;-75
2021/12/14 00:33:33;;;;;;;389.15;157.32;;;;;;;-2.98;100.00;100107.63;2047101;28;20226;-75
2021/12/14 00:34:38;;;;;;;369.45;156.10;;;;;;;-3.03;100.00;100111.78;2039000;29;20226;-75
2021/12/14 00:35:42;;;;;;;372.13;156.35;;;;;;;-3.11;100.00;100115.31;2053646;28;20274;-75
2021/12/14 00:36:44;;;;;;;375.42;154.57;;;;;;;-3.19;100.00;100105.78;2045523;28;20321;-75
2021/12/14 00:37:47;;;;;;;353.75;152.27;;;;;;;-3.29;100.00;100104.44;2043202;28;20244;-75
2021/12/14 00:38:56;;;;;;;345.92;149.38;;;;;;;-3.30;100.00;100113.22;2048669;28;20226;-76
2021/12/14 00:40:01;;;;;;;355.25;150.65;;;;;;;-3.35;100.00;100107.75;2049134;28;20225;-75
2021/12/14 00:41:10;;;;;;;353.42;151.52;;;;;;;-3.42;100.00;100111.06;2046244;28;20708;-75
2021/12/14 00:42:14;;;;;;;334.98;150.30;;;;;;;-3.45;100.00;100115.84;2053193;28;20284;-74
2021/12/14 00:43:17;;;;;;;345.80;150.02;;;;;;;-3.50;100.00;100113.75;2046439;28;20706;-74
2021/12/14 00:44:21;;;;;;;344.88;145.25;;;;;;;-3.56;100.00;100109.28;2054003;28;20295;-75
2021/12/14 00:45:24;;;;;;;350.73;147.77;;;;;;;-3.62;100.00;100115.19;2054388;28;20225;-73
2021/12/14 00:46:26;;;;;;;334.42;143.35;;;;;;;-3.65;100.00;100119.94;2054713;28;20233;-74
2021/12/14 00:47:27;;;;;;;354.08;144.63;;;;;;;-3.62;100.00;100114.38;2054828;28;20707;-75
2021/12/14 00:48:32;;;;;;;348.60;149.57;;;;;;;-3.67;100.00;100116.69;2053987;28;20549;-75
2021/12/14 00:49:36;;;;;;;361.30;144.90;;;;;;;-3.67;100.00;100119.31;2054025;28;20221;-75
2021/12/14 00:50:43;;;;;;;355.02;145.55;;;;;;;-3.78;100.00;100110.94;2053546;28;20308;-74
2021/12/14 00:51:44;;;;;;;346.60;147.68;;;;;;;-3.83;100.00;100117.66;2054344;28;20703;-75
2021/12/14 00:52:47;;;;;;;359.48;144.65;;;;;;;-3.87;100.00;100112.00;2061984;28;20300;-75
2021/12/14 00:53:48;;;;;;;346.52;144.80;;;;;;;-3.88;100.00;100120.81;2054130;28;20303;-75
2021/12/14 00:54:52;;;;;;;326.98;140.60;;;;;;;-3.89;100.00;100120.97;2045545;28;20225;-75
2021/12/14 00:55:56;;;;;;;348.40;144.45;;;;;;;-3.89;100.00;100128.81;2045763;28;20233;-74
2021/12/14 00:56:58;;;;;;;360.17;145.25;;;;;;;-3.89;100.00;100123.59;2045966;28;20293;-75
2021/12/14 00:57:59;;;;;;;357.02;144.40;;;;;;;-3.86;100.00;100126.66;2037980;29;20265;-75
2021/12/14 00:59:03;;;;;;;356.93;141.67;;;;;;;-3.87;100.00;100117.22;2037960;29;20291;-75
2021/12/14 01:00:07;;;;;;;336.42;139.50;;;;;;;-3.87;100.00;100121.59;2038277;29;20310;-75
2021/12/14 01:01:11;;;;;;;344.52;143.52;;;;;;;-3.86;100.00;100116.22;2037976;28;20228;-74
2021/12/14 01:02:16;;;;;;;341.90;139.30;;;;;;;-3.86;100.00;100118.00;2045884;28;20696;-75
2021/12/14 01:03:19;;;;;;;335.23;139.55;;;;;;;-3.89;100.00;100119.19;2038548;29;20250;-74
2021/12/14 01:04:24;;;;;;;345.38;139.77;;;;;;;-3.89;100.00;100123.59;2037970;29;20242;-75
2021/12/14 01:05:31;;;;;;;339.60;141.20;;;;;;;-3.87;100.00;100121.59;2045770;28;20289;-74
2021/12/14 01:06:35;;;;;;;343.67;139.10;;;;;;;-3.88;100.00;100115.59;2046825;28;20225;-75
2021/12/14 01:07:36;;;;;;;342.05;140.85;;;;;;;-3.87;100.00;100126.81;2046732;28;20222;-74
2021/12/14 01:08:41;;;;;;;352.85;142.43;;;;;;;-3.86;100.00;100107.59;2046269;28;20233;-74
2021/12/14 01:09:46;;;;;;;337.75;137.45;;;;;;;-3.85;100.00;100115.22;2045523;28;20356;-75
2021/12/14 01:10:51;;;;;;;331.65;136.35;;;;;;;-3.81;100.00;100115.69;2038523;29;20265;-75
2021/12/14 01:11:56;;;;;;;321.83;138.10;;;;;;;-3.80;100.00;100112.09;2044038;28;20234;-74
2021/12/14 01:13:03;;;;;;;339.10;139.20;;;;;;;-3.80;100.00;100112.09;2054269;28;20643;-74
2021/12/14 01:14:12;;;;;;;345.60;139.82;;;;;;;-3.81;100.00;100107.88;2053795;28;20724;-75
2021/12/14 01:15:25;;;;;;;333.70;136.90;;;;;;;-3.78;100.00;100112.72;2041341;28;20285;-75
2021/12/14 01:16:34;;;;;;;323.58;134.55;;;;;;;-3.76;100.00;100113.34;2055120;28;20232;-75
2021/12/14 01:17:41;;;;;;;353.75;136.98;;;;;;;-3.78;100.00;100110.94;2053598;28;20661;-75
2021/12/14 01:18:49;;;;;;;345.23;140.45;;;;;;;-3.78;100.00;100107.50;2045507;28;20604;-75
2021/12/14 01:19:54;;;;;;;325.58;136.57;;;;;;;-3.83;100.00;100107.22;2045739;28;20262;-75
2021/12/14 01:21:02;;;;;;;331.50;138.90;;;;;;;-3.81;100.00;100107.88;2038165;29;20313;-75
2021/12/14 01:22:18;;;;;;;310.20;131.75;;;;;;;-3.80;100.00;100109.50;2038762;29;20233;-76
2021/12/14 01:23:30;;;;;;;314.20;131.10;;;;;;;-3.79;100.00;100108.50;2039773;29;20219;-74
2021/12/14 01:24:59;;;;;;;327.75;133.52;;;;;;;-3.81;100.00;100097.44;2046576;28;20230;-74
2021/12/14 01:26:04;;;;;;;329.48;131.82;;;;;;;-3.76;100.00;100108.16;2052033;28;20251;-74
2021/12/14 01:27:08;;;;;;;324.73;132.52;;;;;;;-3.75;100.00;100105.34;2054529;28;20226;-76
2021/12/14 01:28:15;;;;;;;325.00;136.35;;;;;;;-3.72;100.00;100110.22;2054150;28;20240;-74
2021/12/14 01:29:18;;;;;;;310.85;131.10;;;;;;;-3.66;100.00;100106.09;2053850;28;20312;-75
2021/12/14 01:30:27;;;;;;;316.92;133.10;;;;;;;-3.67;100.00;100096.66;2053837;28;20706;-75
2021/12/14 01:31:34;;;;;;;310.90;132.63;;;;;;;-3.65;100.00;100099.88;2038550;29;20635;-74
2021/12/14 01:32:40;;;;;;;317.50;132.13;;;;;;;-3.63;100.00;100099.72;2038822;28;20240;-75
2021/12/14 01:33:44;;;;;;;356.50;136.15;;;;;;;-3.62;100.00;100112.59;2044465;28;20226;-74
2021/12/14 01:34:45;;;;;;;303.92;129.32;;;;;;;-3.60;100.00;100100.16;2039257;28;20314;-75
2021/12/14 01:35:49;;;;;;;315.05;131.18;;;;;;;-3.58;100.00;100100.78;2037860;29;20569;-76
2021/12/14 01:36:54;;;;;;;330.38;131.48;;;;;;;-3.57;100.00;100105.00;2045696;28;20226;-75
2021/12/14 01:38:04;;;;;;;306.88;130.55;;;;;;;-3.57;100.00;100099.00;2041650;28;20284;-76
2021/12/14 01:39:22;;;;;;;321.60;130.88;;;;;;;-3.56;100.00;100101.44;2039075;29;20229;-77
2021/12/14 01:40:52;;;;;;;319.90;125.53;;;;;;;-3.51;100.00;100100.91;2045404;28;20232;-75
2021/12/14 01:41:57;;;;;;;307.25;125.30;;;;;;;-3.50;100.00;100098.09;2048703;28;20237;-77
2021/12/14 01:42:59;;;;;;;318.60;124.55;;;;;;;-3.49;100.00;100099.72;2046306;28;20244;-76
2021/12/14 01:44:03;;;;;;;321.52;129.95;;;;;;;-3.49;100.00;100098.91;2045828;28;20313;-76
2021/12/14 01:45:21;;;;;;;319.13;131.30;;;;;;;-3.49;100.00;100098.91;2053352;28;20370;-76
2021/12/14 01:46:26;;;;;;;294.20;123.72;;;;;;;-3.47;100.00;100089.13;2053282;28;20276;-75
2021/12/14 01:47:39;;;;;;;298.30;122.93;;;;;;;-3.42;100.00;100098.03;2047037;28;20257;-76
2021/12/14 01:49:05;;;;;;;304.35;125.35;;;;;;;-3.42;100.00;100100.63;2048275;28;20229;-77
2021/12/14 01:50:22;;;;;;;310.13;124.28;;;;;;;-3.42;100.00;100094.59;2047235;28;20226;-76
2021/12/14 01:51:50;;;;;;;298.55;120.45;;;;;;;-3.44;100.00;100096.59;2045180;28;20229;-76
2021/12/14 01:52:56;;;;;;;299.23;124.57;;;;;;;-3.47;100.00;100097.78;2048742;28;20234;-76
2021/12/14 01:53:59;;;;;;;300.13;124.05;;;;;;;-3.48;100.00;100093.50;2037872;29;20244;-76
2021/12/14 01:55:06;;;;;;;306.08;124.32;;;;;;;-3.44;100.00;100097.41;2037856;29;20226;-76
2021/12/14 01:56:14;;;;;;;304.70;121.55;;;;;;;-3.45;100.00;100098.38;2038276;29;20250;-75
2021/12/14 01:57:18;;;;;;;304.05;120.68;;;;;;;-3.46;100.00;100102.00;2045684;28;20666;-76
2021/12/14 01:58:22;;;;;;;311.90;123.32;;;;;;;-3.51;100.00;100096.50;2045293;29;20627;-76
2021/12/14 01:59:34;;;;;;;293.20;120.65;;;;;;;-3.53;100.00;100098.47;2045728;28;20706;-75
2021/12/14 02:00:40;;;;;;;304.20;120.85;;;;;;;-3.53;100.00;100103.69;2047162;28;20704;-76
2021/12/14 02:01:53;;;;;;;304.67;125.07;;;;;;;-3.53;100.00;100098.47;2045754;28;20700;-75
2021/12/14 02:02:54;;;;;;;315.48;122.45;;;;;;;-3.49;100.00;100104.94;2042376;28;20796;-76
2021/12/14 02:04:01;;;;;;;313.53;123.37;;;;;;;-3.50;100.00;100100.72;2045633;28;20234;-75
2021/12/14 02:05:09;;;;;;;313.88;123.45;;;;;;;-3.51;100.00;100096.50;2045757;28;20458;-75
2021/12/14 02:06:15;;;;;;;337.88;123.88;;;;;;;-3.50;100.00;100103.31;2049112;28;20244;-75
2021/12/14 02:07:19;;;;;;;321.45;125.85;;;;;;;-3.55;100.00;100100.47;2046981;28;20234;-75
2021/12/14 02:08:23;;;;;;;312.90;123.97;;;;;;;-3.56;100.00;100098.84;2039595;29;20235;-75
2021/12/14 02:09:28;;;;;;;324.77;124.05;;;;;;;-3.53;100.00;100108.91;2039417;28;20230;-75
2021/12/14 02:10:34;;;;;;;322.60;123.13;;;;;;;-3.55;100.00;100103.06;2039591;29;20277;-75
2021/12/14 02:11:41;;;;;;;341.17;130.05;;;;;;;-3.56;100.00;100106.66;2047156;28;20226;-75
2021/12/14 02:12:44;;;;;;;323.13;123.60;;;;;;;-3.58;100.00;100099.97;2039706;28;20689;-75
2021/12/14 02:13:48;;;;;;;336.58;125.30;;;;;;;-3.55;100.00;100108.28;2047269;28;20218;-75
2021/12/14 02:14:56;;;;;;;330.88;128.40;;;;;;;-3.56;100.00;100113.66;2050811;28;20317;-75
2021/12/14 02:16:00;;;;;;;341.25;127.40;;;;;;;-3.60;100.00;100102.78;2046967;28;20260;-75
2021/12/14 02:17:06;;;;;;;346.98;127.10;;;;;;;-3.59;100.00;100114.81;2047084;28;20242;-75
2021/12/14 02:18:14;;;;;;;340.17;125.75;;;;;;;-3.58;100.00;100105.19;2047008;28;20230;-75
2021/12/14 02:19:16;;;;;;;331.58;126.88;;;;;;;-3.61;100.00;100103.78;2054573;28;20248;-75
2021/12/14 02:20:23;;;;;;;322.33;124.95;;;;;;;-3.62;100.00;100109.97;2055019;28;20233;-75
2021/12/14 02:21:26;;;;;;;337.20;127.15;;;;;;;-3.61;100.00;100105.56;2039615;28;20230;-75
2021/12/14 02:22:28;;;;;;;323.58;122.25;;;;;;;-3.62;100.00;100115.19;2038897;29;20250;-76
2021/12/14 02:23:30;;;;;;;327.73;121.32;;;;;;;-3.62;100.00;100104.75;2038822;29;20218;-75
2021/12/14 02:24:32;;;;;;;334.15;121.20;;;;;;;-3.60;100.00;100107.19;2046969;28;20328;-75
2021/12/14 02:25:34;;;;;;;344.83;120.07;;;;;;;-3.52;100.00;100113.13;2046956;28;20786;-75
2021/12/14 02:26:40;;;;;;;334.38;122.13;;;;;;;-3.49;100.00;100110.16;2054435;28;20245;-76
2021/12/14 02:27:43;;;;;;;344.65;121.30;;;;;;;-3.46;100.00;100107.22;2054172;28;20236;-75
2021/12/14 02:28:45;;;;;;;333.55;122.13;;;;;;;-3.48;100.00;100105.75;2047140;28;20226;-75
2021/12/14 02:29:47;;;;;;;339.90;122.00;;;;;;;-3.51;100.00;100112.13;2046868;28;20642;-76
2021/12/14 02:30:51;;;;;;;317.55;117.82;;;;;;;-3.48;100.00;100106.56;2039001;29;20233;-75
2021/12/14 02:31:53;;;;;;;308.60;116.63;;;;;;;-3.46;100.00;100109.00;2046990;28;20293;-76
2021/12/14 02:32:57;;;;;;;348.20;120.93;;;;;;;-3.46;100.00;100106.41;2050323;28;20226;-75
2021/12/14 02:34:02;;;;;;;338.83;118.20;;;;;;;-3.49;100.00;100112.75;2047077;28;20237;-75
2021/12/14 02:35:08;;;;;;;341.13;119.22;;;;;;;-3.51;100.00;100112.13;2046985;28;20236;-75
2021/12/14 02:36:11;;;;;;;342.50;118.78;;;;;;;-3.50;100.00;100111.16;2047302;28;20269;-75
2021/12/14 02:37:17;;;;;;;316.52;118.38;;;;;;;-3.53;100.00;100108.91;2047091;28;20286;-76
2021/12/14 02:38:18;;;;;;;326.00;118.13;;;;;;;-3.53;100.00;100103.69;2055101;28;20292;-75
2021/12/14 02:39:35;;;;;;;339.15;123.18;;;;;;;-3.55;100.00;100110.88;2055314;28;20232;-75
2021/12/14 02:40:57;;;;;;;332.65;117.50;;;;;;;-3.57;100.00;100109.44;2047489;28;20758;-75
2021/12/14 02:42:03;;;;;;;344.15;116.90;;;;;;;-3.53;100.00;100103.69;2048985;28;20237;-75
2021/12/14 02:43:05;;;;;;;342.95;119.00;;;;;;;-3.52;100.00;100107.91;2039074;29;20234;-75
2021/12/14 02:44:08;;;;;;;360.02;122.72;;;;;;;-3.49;100.00;100106.75;2052848;28;20239;-75
2021/12/14 02:45:10;;;;;;;345.88;118.93;;;;;;;-3.46;100.00;100104.59;2054835;28;20244;-75
2021/12/14 02:46:15;;;;;;;344.30;115.28;;;;;;;-3.46;100.00;100109.81;2054816;28;20312;-75
2021/12/14 02:47:20;;;;;;;340.73;117.85;;;;;;;-3.47;100.00;100110.81;2054804;28;20264;-75
2021/12/14 02:48:23;;;;;;;340.98;118.10;;;;;;;-3.45;100.00;100119.25;2046886;28;20237;-75
2021/12/14 02:49:31;;;;;;;343.58;116.55;;;;;;;-3.40;100.00;100113.50;2046739;28;20222;-75
2021/12/14 02:50:33;;;;;;;337.35;118.68;;;;;;;-3.44;100.00;100110.44;2047785;28;20291;-75
2021/12/14 02:51:36;;;;;;;345.52;119.20;;;;;;;-3.43;100.00;100122.50;2054884;28;20304;-75
2021/12/14 02:52:40;;;;;;;331.13;116.93;;;;;;;-3.47;100.00;100110.81;2054413;28;20285;-75
2021/12/14 02:53:44;;;;;;;355.60;117.47;;;;;;;-3.42;100.00;100113.66;2047053;28;20226;-75
2021/12/14 02:54:49;;;;;;;331.42;117.50;;;;;;;-3.41;100.00;100109.25;2054940;28;20225;-75
2021/12/14 02:55:51;;;;;;;336.48;117.32;;;;;;;-3.39;100.00;100109.09;2048923;28;20230;-75
2021/12/14 02:56:56;;;;;;;331.35;117.60;;;;;;;-3.41;100.00;100111.88;2038515;29;20238;-74
2021/12/14 02:58:02;;;;;;;356.10;120.03;;;;;;;-3.43;100.00;100106.03;2039261;29;23466;-75
2021/12/14 02:59:08;;;;;;;372.98;120.28;;;;;;;-3.45;100.00;100111.44;2039631;29;20227;-75
2021/12/14 03:00:14;;;;;;;365.25;118.00;;;;;;;-3.47;100.00;100110.81;2042822;28;20290;-74
2021/12/14 03:01:18;;;;;;;370.60;120.63;;;;;;;-3.47;100.00;100112.59;2046978;29;20280;-75
2021/12/14 03:02:22;;;;;;;371.05;119.50;;;;;;;-3.48;100.00;100114.38;2046375;28;20238;-75
2021/12/14 03:03:26;;;;;;;360.85;116.15;;;;;;;-3.52;100.00;100110.53;2040768;28;20231;-75
2021/12/14 03:04:27;;;;;;;361.95;121.47;;;;;;;-3.49;100.00;100117.16;2039210;29;20237;-75
2021/12/14 03:05:33;;;;;;;374.70;118.70;;;;;;;-3.55;100.00;100110.88;2038900;29;20237;-75
2021/12/14 03:06:44;;;;;;;364.75;121.40;;;;;;;-3.54;100.00;100122.94;2039400;29;20231;-75
2021/12/14 03:07:54;;;;;;;378.05;120.28;;;;;;;-3.52;100.00;100120.16;2046568;28;20222;-75
2021/12/14 03:09:08;;;;;;;367.10;119.05;;;;;;;-3.50;100.00;100123.38;2046535;28;20257;-75
2021/12/14 03:10:33;;;;;;;364.98;118.28;;;;;;;-3.41;100.00;100124.91;2047073;28;20237;-75
2021/12/14 03:11:34;;;;;;;368.33;121.13;;;;;;;-3.44;100.00;100123.47;2047271;28;20727;-76
2021/12/14 03:12:40;;;;;;;365.10;120.45;;;;;;;-3.49;100.00;100114.56;2047442;28;20233;-76
2021/12/14 03:13:44;;;;;;;386.02;119.07;;;;;;;-3.47;100.00;100118.63;2046313;28;20782;-75
2021/12/14 03:14:50;;;;;;;370.38;119.15;;;;;;;-3.51;100.00;100106.91;2039104;29;20705;-75
2021/12/14 03:15:57;;;;;;;402.83;121.95;;;;;;;-3.49;100.00;100117.97;2039279;29;20245;-75
2021/12/14 03:17:00;;;;;;;399.33;123.18;;;;;;;-3.49;100.00;100112.75;2054468;28;20609;-75
2021/12/14 03:18:05;;;;;;;389.50;121.35;;;;;;;-3.50;100.00;100105.94;2054233;28;20220;-75
2021/12/14 03:19:08;;;;;;;389.40;122.20;;;;;;;-3.49;100.00;100109.34;2054741;28;20222;-75
2021/12/14 03:20:12;;;;;;;404.17;126.43;;;;;;;-3.50;100.00;100111.16;2053899;28;20284;-75
2021/12/14 03:21:16;;;;;;;405.73;125.10;;;;;;;-3.51;100.00;100104.31;2047051;28;20257;-75
2021/12/14 03:22:25;;;;;;;406.33;126.32;;;;;;;-3.51;100.00;100106.91;2054756;28;20225;-75
2021/12/14 03:23:32;;;;;;;407.77;124.00;;;;;;;-3.49;100.00;100107.53;2047539;28;20230;-75
2021/12/14 03:24:32;;;;;;;424.42;127.57;;;;;;;-3.49;100.00;100115.38;2046828;28;20232;-76
2021/12/14 03:25:36;;;;;;;397.03;126.33;;;;;;;-3.50;100.00;100116.38;2046633;28;20308;-75
2021/12/14 03:26:40;;;;;;;408.23;129.45;;;;;;;-3.48;100.00;100111.78;2046345;28;20241;-75
2021/12/14 03:27:44;;;;;;;435.92;131.70;;;;;;;-3.44;100.00;100107.03;2046589;28;20289;-75
2021/12/14 03:28:50;;;;;;;401.95;131.70;;;;;;;-3.41;100.00;100107.47;2038957;29;20685;-75
2021/12/14 03:29:55;;;;;;;426.95;127.43;;;;;;;-3.39;100.00;100103.84;2046674;28;20244;-75
2021/12/14 03:31:05;;;;;;;416.30;132.20;;;;;;;-3.33;100.00;100105.75;2054108;28;20332;-75
2021/12/14 03:32:12;;;;;;;407.90;124.00;;;;;;;-3.17;100.00;100108.19;2047695;28;20667;-75
2021/12/14 03:33:18;;;;;;;410.73;125.72;;;;;;;-3.14;100.00;100105.22;2054626;28;20639;-75
2021/12/14 03:34:26;;;;;;;420.77;125.35;;;;;;;-3.13;100.00;100109.44;2054619;28;20233;-75
2021/12/14 03:35:37;;;;;;;422.02;125.65;;;;;;;-3.09;100.00;100113.31;2042364;28;20281;-75
2021/12/14 03:36:46;;;;;;;388.38;123.53;;;;;;;-3.07;100.00;100108.72;2047377;28;20230;-74
2021/12/14 03:37:48;;;;;;;422.17;131.15;;;;;;;-3.10;100.00;100114.31;2046475;28;20234;-75
2021/12/14 03:38:53;;;;;;;435.58;128.55;;;;;;;-3.13;100.00;100114.66;2038643;29;20710;-75
2021/12/14 03:40:02;;;;;;;427.98;126.60;;;;;;;-3.20;100.00;100113.78;2038717;28;20248;-75
2021/12/14 03:41:10;;;;;;;398.23;127.88;;;;;;;-3.25;100.00;100116.91;2039933;29;20247;-75
2021/12/14 03:42:15;;;;;;;420.35;129.48;;;;;;;-3.27;100.00;100107.66;2038670;29;20238;-75
2021/12/14 03:43:20;;;;;;;404.63;128.02;;;;;;;-3.27;100.00;100107.66;2039021;29;20226;-75
2021/12/14 03:44:25;;;;;;;394.90;128.98;;;;;;;-3.29;100.00;100110.47;2046435;28;20261;-75
2021/12/14 03:45:25;;;;;;;425.10;130.20;;;;;;;-3.24;100.00;100110.72;2046667;28;20286;-75
2021/12/14 03:46:28;;;;;;;433.57;133.43;;;;;;;-3.23;100.00;100106.28;2046513;28;20261;-75
2021/12/14 03:47:33;;;;;;;429.10;132.10;;;;;;;-3.22;100.00;100105.31;2038474;29;20803;-75
2021/12/14 03:48:36;;;;;;;447.92;134.10;;;;;;;-3.18;100.00;100110.00;2039092;29;20227;-75
2021/12/14 03:49:40;;;;;;;442.95;135.93;;;;;;;-3.21;100.00;100101.72;2038499;29;20238;-75
2021/12/14 03:50:43;;;;;;;418.35;130.55;;;;;;;-3.19;100.00;100110.19;2046529;28;20257;-75
2021/12/14 03:51:45;;;;;;;452.60;135.75;;;;;;;-3.20;100.00;100104.16;2039797;28;20764;-75
2021/12/14 03:52:47;;;;;;;456.33;135.50;;;;;;;-3.19;100.00;100115.41;2038530;29;20669;-75
2021/12/14 03:53:55;;;;;;;430.15;136.75;;;;;;;-3.20;100.00;100109.38;2039124;29;20709;-75
2021/12/14 03:54:58;;;;;;;428.92;134.48;;;;;;;-3.19;100.00;100112.78;2046432;28;20230;-75
2021/12/14 03:56:02;;;;;;;452.17;138.02;;;;;;;-3.19;100.00;100113.59;2046626;28;20226;-76
2021/12/14 03:57:05;;;;;;;463.42;135.77;;;;;;;-3.18;100.00;100106.56;2046659;28;20321;-76
2021/12/14 03:58:08;;;;;;;450.25;133.15;;;;;;;-3.15;100.00;100101.78;2046151;28;20237;-76
2021/12/14 03:59:10;;;;;;;458.23;139.60;;;;;;;-3.13;100.00;100106.81;2045799;28;20241;-75
2021/12/14 04:00:16;;;;;;;447.58;138.32;;;;;;;-3.15;100.00;100096.56;2046298;28;20257;-75
2021/12/14 04:01:25;;;;;;;468.73;140.98;;;;;;;-3.12;100.00;100105.88;2046455;28;20250;-75
2021/12/14 04:02:32;;;;;;;447.45;136.07;;;;;;;-3.10;100.00;100101.25;2046006;28;20229;-75
2021/12/14 04:03:34;;;;;;;467.80;140.02;;;;;;;-3.09;100.00;100096.84;2038437;29;20230;-75
2021/12/14 04:04:52;;;;;;;452.25;141.73;;;;;;;-3.09;100.00;100102.06;2038921;28;20226;-75
2021/12/14 04:05:54;;;;;;;488.67;144.50;;;;;;;-3.09;100.00;100095.06;2038784;29;20262;-75
2021/12/14 04:06:58;;;;;;;476.45;142.25;;;;;;;-3.08;100.00;100101.88;2038249;29;20249;-76
2021/12/14 04:07:58;;;;;;;483.20;142.13;;;;;;;-3.06;100.00;100093.88;2046269;28;20301;-75
2021/12/14 04:09:02;;;;;;;487.83;147.80;;;;;;;-3.06;100.00;100094.69;2046275;28;20221;-76
2021/12/14 04:10:04;;;;;;;482.60;144.82;;;;;;;-3.06;100.00;100097.28;2038394;29;20235;-75
2021/12/14 04:11:08;;;;;;;497.88;144.98;;;;;;;-3.08;100.00;100091.44;2046146;28;20662;-76
2021/12/14 04:12:17;;;;;;;495.25;146.07;;;;;;;-3.07;100.00;100089.63;2046024;28;20582;-75
2021/12/14 04:13:21;;;;;;;494.98;146.35;;;;;;;-3.07;100.00;100095.66;2047189;28;20276;-76
2021/12/14 04:14:22;;;;;;;512.47;145.00;;;;;;;-3.09;100.00;100089.84;2046544;28;20307;-76
2021/12/14 04:15:24;;;;;;;494.42;144.55;;;;;;;-3.07;100.00;100087.84;2053756;28;20229;-75
2021/12/14 04:16:26;;;;;;;491.55;143.27;;;;;;;-3.06;100.00;100080.81;2054148;28;20232;-75
2021/12/14 04:17:30;;;;;;;497.83;145.63;;;;;;;-3.07;100.00;100085.22;2046462;28;20222;-76
2021/12/14 04:18:32;;;;;;;509.95;149.82;;;;;;;-3.05;100.00;100083.25;2044407;28;20633;-76
2021/12/14 04:19:36;;;;;;;504.40;148.75;;;;;;;-3.06;100.00;100081.63;2039311;28;20230;-76
2021/12/14 04:20:40;;;;;;;487.42;146.52;;;;;;;-3.04;100.00;100090.09;2038563;29;20655;-75
2021/12/14 04:21:45;;;;;;;496.90;148.75;;;;;;;-3.01;100.00;100089.72;2053873;28;21343;-75
2021/12/14 04:22:50;;;;;;;493.90;145.60;;;;;;;-2.99;100.00;100092.16;2046540;28;20755;-76
2021/12/14 04:23:53;;;;;;;498.73;152.55;;;;;;;-2.97;100.00;100090.16;2044373;28;20240;-76
2021/12/14 04:25:06;;;;;;;520.33;153.30;;;;;;;-2.95;100.00;100091.63;2044799;28;20226;-75
2021/12/14 04:26:11;;;;;;;494.73;150.70;;;;;;;-2.96;100.00;100087.38;2046950;28;20633;-75
2021/12/14 04:27:18;;;;;;;529.00;155.65;;;;;;;-2.95;100.00;100094.22;2046783;28;20712;-75
2021/12/14 04:28:24;;;;;;;515.47;150.05;;;;;;;-2.93;100.00;100094.03;2054248;28;20283;-76
2021/12/14 04:29:27;;;;;;;493.75;147.27;;;;;;;-2.94;100.00;100098.47;2044833;28;20236;-75
2021/12/14 04:30:28;;;;;;;513.08;152.48;;;;;;;-2.93;100.00;100097.47;2038317;29;20261;-75
2021/12/14 04:31:34;;;;;;;498.10;149.45;;;;;;;-2.95;100.00;100089.00;2038336;29;20230;-75
2021/12/14 04:32:35;;;;;;;491.40;145.20;;;;;;;-2.91;100.00;100090.25;2038453;29;20313;-75
2021/12/14 04:33:42;;;;;;;507.00;149.80;;;;;;;-2.87;100.00;100090.69;2046201;28;20222;-76
2021/12/14 04:34:46;;;;;;;524.90;149.60;;;;;;;-2.90;100.00;100094.47;2048711;28;20225;-76
2021/12/14 04:35:48;;;;;;;494.23;143.30;;;;;;;-2.92;100.00;100096.47;2046226;28;20684;-76
2021/12/14 04:36:53;;;;;;;499.33;145.63;;;;;;;-2.92;100.00;100095.66;2046043;28;20254;-75
2021/12/14 04:37:59;;;;;;;507.00;148.25;;;;;;;-2.93;100.00;100094.84;2053670;28;20667;-75
2021/12/14 04:39:20;;;;;;;534.60;149.13;;;;;;;-2.92;100.00;100099.06;2046696;28;20728;-76
2021/12/14 04:51:53;;;;;;;516.63;142.43;;;;;;;-2.93;100.00;100089.63;2040627;28;20751;-75
2021/12/14 04:52:54;;;;;;;507.77;141.15;;;;;;;-2.85;100.00;100107.00;2047739;28;20696;-74
2021/12/14 04:54:00;;;;;;;478.75;140.52;;;;;;;-2.87;100.00;100103.72;2046063;28;20357;-75
2021/12/14 04:55:08;;;;;;;503.42;142.88;;;;;;;-2.86;100.00;100105.38;2046529;28;20297;-76
2021/12/14 04:56:15;;;;;;;518.45;141.80;;;;;;;-2.86;100.00;100108.81;2044880;28;20226;-75
2021/12/14 04:57:25;;;;;;;519.42;147.50;;;;;;;-2.87;100.00;100106.34;2046430;28;20226;-76
2021/12/14 04:58:29;;;;;;;534.80;144.82;;;;;;;-2.89;100.00;100096.09;2046743;28;20237;-75
2021/12/14 04:59:38;;;;;;;518.55;148.88;;;;;;;-2.89;100.00;100101.31;2054366;28;20225;-77
2021/12/14 05:00:44;;;;;;;532.70;147.93;;;;;;;-2.90;100.00;100097.09;2053271;28;20224;-76
2021/12/14 05:02:00;;;;;;;535.40;146.45;;;;;;;-2.91;100.00;100094.66;2047110;28;20744;-75
2021/12/14 05:03:29;;;;;;;530.63;145.07;;;;;;;-2.88;100.00;100096.91;2053659;28;20229;-76